X  Schlie├čen METAR Luftfahrt Wetterdaten     LDPL Pula Airport
Temperatur
11°C Temperatur
6°C Taupunkt
72% Feuchtigkeit



Wind
3 MPS
5 KM/S
1 M/S
3 KTS



140°
SO
Aktuelle Wetterlage

Klar Klar
Luftdruck 1020.92 (hPa) - 30.15 (inHg)
Sichtweite 6.2 (Meile) - 10 (Km)
Flughafen
Flughafen Code LDPL

Position : Pula Airport
Entfernung: 39 (mi)

Metar:
LDPL 040930Z 14003KT 080V240 CAVOK 11/06 Q1021 BECMG FM1030 06015KT

Zeit: 04-02-2023 10:30 CET